createdAt,value
2023-05-08T00:03:01.216Z,101942.63
2023-05-08T00:08:06.940Z,101935.19
2023-05-08T00:13:11.100Z,101936.03
2023-05-08T00:18:15.131Z,101931.75
2023-05-08T00:23:22.146Z,101932.72
2023-05-08T00:28:26.391Z,101931.19
2023-05-08T00:33:30.504Z,101929.66
2023-05-08T00:38:37.189Z,101935.91
2023-05-08T00:43:41.280Z,101937.53
2023-05-08T00:48:46.474Z,101940.28
2023-05-08T00:53:52.270Z,101936.88
2023-05-08T00:58:56.739Z,101932.56
2023-05-08T01:04:00.860Z,101927.34
2023-05-08T01:09:07.923Z,101936.88
2023-05-08T01:14:20.731Z,101931.75
2023-05-08T01:20:10.309Z,101925.00
2023-05-08T01:26:07.513Z,101915.31
2023-05-08T01:31:26.239Z,101921.41
2023-05-08T01:36:45.835Z,101930.91
2023-05-08T01:41:59.251Z,101930.66
2023-05-08T01:47:08.737Z,101930.41
2023-05-08T01:52:20.735Z,101933.44
2023-05-08T01:57:28.578Z,101945.34
2023-05-08T02:02:34.777Z,101945.88
2023-05-08T02:07:41.779Z,101942.00
2023-05-08T02:12:46.082Z,101953.88
2023-05-08T02:17:52.049Z,101950.06
2023-05-08T02:22:58.214Z,101961.66
2023-05-08T02:28:03.713Z,101953.66
2023-05-08T02:33:11.741Z,101963.47
2023-05-08T02:38:19.116Z,101966.66
2023-05-08T02:43:24.007Z,101964.16
2023-05-08T02:48:39.505Z,101959.78
2023-05-08T02:53:52.899Z,101959.09
2023-05-08T02:59:03.575Z,101952.34
2023-05-08T03:04:10.600Z,101947.38
2023-05-08T03:09:21.973Z,101943.09
2023-05-08T03:14:29.810Z,101945.06
2023-05-08T03:19:38.482Z,101946.03
2023-05-08T03:24:47.838Z,101939.94
2023-05-08T03:29:53.502Z,101939.09
2023-05-08T03:35:00.600Z,101939.53
2023-05-08T03:40:08.297Z,101937.34
2023-05-08T03:45:15.469Z,101945.47
2023-05-08T03:50:19.710Z,101946.72
2023-05-08T03:55:26.783Z,101950.59
2023-05-08T04:00:43.132Z,101953.50
2023-05-08T04:05:53.283Z,101946.06
2023-05-08T04:11:11.296Z,101957.09
2023-05-08T04:16:22.080Z,101956.84
2023-05-08T04:21:28.093Z,101960.81
2023-05-08T04:26:35.366Z,101963.44
2023-05-08T04:31:41.279Z,101960.69
2023-05-08T04:36:45.778Z,101964.69
2023-05-08T04:41:52.740Z,101974.63
2023-05-08T04:46:57.841Z,101966.09
2023-05-08T04:52:03.876Z,101978.59
2023-05-08T04:57:09.674Z,101979.69
2023-05-08T05:02:14.383Z,101989.75
2023-05-08T05:07:18.997Z,101984.28
2023-05-08T05:12:24.618Z,101996.25
2023-05-08T05:17:29.262Z,101999.00
2023-05-08T05:22:34.882Z,102016.81
2023-05-08T05:27:40.393Z,102013.63
2023-05-08T05:32:45.514Z,102020.53
2023-05-08T05:37:49.768Z,102022.31
2023-05-08T05:42:56.057Z,102016.09
2023-05-08T05:48:00.320Z,102033.47
2023-05-08T05:53:05.125Z,102025.75
2023-05-08T05:58:10.630Z,102031.97
2023-05-08T06:03:15.912Z,102033.19
2023-05-08T06:08:20.490Z,102032.50
2023-05-08T06:13:26.069Z,102023.53
2023-05-08T06:18:30.598Z,102032.50
2023-05-08T06:23:34.811Z,102028.94
2023-05-08T06:28:40.243Z,102035.91
2023-05-08T06:33:44.328Z,102042.53
2023-05-08T06:38:48.411Z,102051.38
2023-05-08T06:43:53.855Z,102046.94
2023-05-08T06:48:57.816Z,102045.25
2023-05-08T06:54:01.913Z,102047.03
2023-05-08T06:59:08.712Z,102049.97
2023-05-08T07:04:13.997Z,102050.22
2023-05-08T07:09:18.141Z,102043.00
2023-05-08T07:14:23.651Z,102047.56
2023-05-08T07:19:27.770Z,102043.53
2023-05-08T07:24:32.035Z,102046.41
2023-05-08T07:29:37.669Z,102042.81
2023-05-08T07:34:41.797Z,102039.03
2023-05-08T07:39:47.786Z,102049.00
2023-05-08T07:44:55.191Z,102043.34
2023-05-08T07:49:59.420Z,102047.59
2023-05-08T07:55:03.789Z,102050.97
2023-05-08T08:00:12.179Z,102044.91
2023-05-08T08:05:19.224Z,102040.72
2023-05-08T08:10:23.528Z,102033.81
2023-05-08T08:15:29.074Z,102032.38
2023-05-08T08:20:33.110Z,102031.94
2023-05-08T08:25:37.106Z,102038.13
2023-05-08T08:30:42.592Z,102032.13
2023-05-08T08:35:46.676Z,102034.84
2023-05-08T08:40:50.844Z,102035.09
2023-05-08T08:45:56.683Z,102032.72
2023-05-08T08:51:08.268Z,102030.19
2023-05-08T08:56:13.984Z,102034.59
2023-05-08T09:01:22.006Z,102035.88
2023-05-08T09:06:27.914Z,102030.84
2023-05-08T09:11:32.086Z,102030.69
2023-05-08T09:16:37.894Z,102032.75
2023-05-08T09:21:43.043Z,102034.81
2023-05-08T09:26:47.186Z,102023.91
2023-05-08T09:31:54.593Z,102030.72
2023-05-08T09:37:13.678Z,102023.81
2023-05-08T09:42:17.851Z,102036.63
2023-05-08T09:47:26.476Z,102035.94
2023-05-08T09:52:31.716Z,102031.16
2023-05-08T09:57:39.289Z,102029.00
2023-05-08T10:02:59.413Z,102024.72
2023-05-08T10:08:20.383Z,102024.97
2023-05-08T10:13:26.242Z,102017.38
2023-05-08T10:18:36.659Z,102017.56
2023-05-08T10:23:42.455Z,102015.13
2023-05-08T10:28:57.127Z,102010.88
2023-05-08T10:34:04.175Z,102011.03
2023-05-08T10:39:08.553Z,102007.41
2023-05-08T10:44:12.966Z,102005.78
2023-05-08T10:49:27.498Z,102007.41
2023-05-08T10:54:43.833Z,102012.03
2023-05-08T10:59:48.522Z,101992.25
2023-05-08T11:04:54.024Z,101992.59
2023-05-08T11:10:08.619Z,102000.69
2023-05-08T11:15:12.884Z,101980.41
2023-05-08T11:20:18.295Z,101977.13
2023-05-08T11:25:46.038Z,101982.56
2023-05-08T11:30:56.019Z,101971.84
2023-05-08T11:36:13.863Z,101963.13
2023-05-08T11:41:23.415Z,101971.00
2023-05-08T11:46:41.216Z,101968.88
2023-05-08T11:51:49.702Z,101965.06
2023-05-08T11:56:55.391Z,101965.88
2023-05-08T12:02:08.730Z,101968.19
2023-05-08T12:07:16.110Z,101961.41
2023-05-08T12:12:20.066Z,101953.31
2023-05-08T12:17:24.331Z,101968.16
2023-05-08T12:22:29.929Z,101950.88
2023-05-08T12:27:33.968Z,101960.25
2023-05-08T12:32:39.990Z,101951.34
2023-05-08T12:37:47.146Z,101940.53
2023-05-08T12:42:52.125Z,101927.28
2023-05-08T12:48:02.199Z,101919.44
2023-05-08T12:53:09.885Z,101914.88
2023-05-08T12:58:15.972Z,101910.56
2023-05-08T13:03:25.739Z,101899.81
2023-05-08T13:08:38.177Z,101902.00
2023-05-08T13:13:42.390Z,101901.66
2023-05-08T13:18:47.193Z,101909.41
2023-05-08T13:23:52.949Z,101902.28
2023-05-08T13:28:57.095Z,101905.22
2023-05-08T13:34:01.213Z,101897.59
2023-05-08T13:39:07.210Z,101894.78
2023-05-08T13:44:11.505Z,101893.34
2023-05-08T13:49:15.749Z,101880.94
2023-05-08T13:54:21.404Z,101888.88
2023-05-08T13:59:26.246Z,101876.63
2023-05-08T14:04:30.651Z,101872.91
2023-05-08T14:09:36.240Z,101870.19
2023-05-08T14:14:40.402Z,101867.06
2023-05-08T14:19:46.066Z,101864.09
2023-05-08T14:24:51.640Z,101867.06
2023-05-08T14:29:55.792Z,101859.34
2023-05-08T14:34:59.921Z,101862.69
2023-05-08T14:40:06.717Z,101857.94
2023-05-08T14:45:11.898Z,101869.75
2023-05-08T14:50:16.734Z,101865.53
2023-05-08T14:55:23.106Z,101876.81
2023-05-08T15:00:27.364Z,101868.72
2023-05-08T15:05:31.676Z,101875.00
2023-05-08T15:10:37.296Z,101859.78
2023-05-08T15:15:41.791Z,101867.41
2023-05-08T15:20:47.694Z,101865.31
2023-05-08T15:25:53.560Z,101865.81
2023-05-08T15:30:57.803Z,101859.19
2023-05-08T15:36:02.016Z,101851.34
2023-05-08T15:41:08.101Z,101856.97
2023-05-08T15:46:12.211Z,101843.13
2023-05-08T15:51:16.482Z,101846.59
2023-05-08T15:56:24.467Z,101858.34
2023-05-08T16:01:28.977Z,101867.28
2023-05-08T16:06:34.308Z,101860.72
2023-05-08T16:11:39.838Z,101856.78
2023-05-08T16:16:44.492Z,101856.94
2023-05-08T16:21:49.324Z,101849.19
2023-05-08T16:26:54.877Z,101860.94
2023-05-08T16:31:59.096Z,101852.16
2023-05-08T16:37:03.327Z,101856.16
2023-05-08T16:42:08.951Z,101849.75
2023-05-08T16:47:13.185Z,101842.41
2023-05-08T16:52:17.311Z,101830.25
2023-05-08T16:57:22.837Z,101819.72
2023-05-08T17:02:26.990Z,101826.66
2023-05-08T17:07:31.187Z,101828.50
2023-05-08T17:12:38.151Z,101824.59
2023-05-08T17:17:42.662Z,101827.78
2023-05-08T17:22:47.038Z,101827.81
2023-05-08T17:27:52.531Z,101818.78
2023-05-08T17:32:57.147Z,101816.66
2023-05-08T17:38:01.260Z,101831.16
2023-05-08T17:43:08.603Z,101838.72
2023-05-08T17:48:12.758Z,101848.31
2023-05-08T17:53:16.892Z,101854.53
2023-05-08T17:58:22.411Z,101832.97
2023-05-08T18:03:26.563Z,101833.97
2023-05-08T18:08:30.694Z,101824.25
2023-05-08T18:13:36.188Z,101834.31
2023-05-08T18:18:40.200Z,101837.75
2023-05-08T18:23:44.351Z,101846.97
2023-05-08T18:28:49.871Z,101845.31
2023-05-08T18:33:53.952Z,101833.78
2023-05-08T18:38:58.162Z,101838.25
2023-05-08T18:44:05.141Z,101854.66
2023-05-08T18:49:09.288Z,101851.47
2023-05-08T18:54:13.706Z,101850.97
2023-05-08T18:59:21.182Z,101840.28
2023-05-08T19:04:27.608Z,101837.47
2023-05-08T19:09:33.585Z,101830.19
2023-05-08T19:14:41.504Z,101833.31
2023-05-08T19:19:48.088Z,101842.84
2023-05-08T19:24:52.254Z,101846.09
2023-05-08T19:29:57.921Z,101851.00
2023-05-08T19:35:02.700Z,101848.31
2023-05-08T19:40:08.254Z,101859.59
2023-05-08T19:45:16.232Z,101867.00
2023-05-08T19:50:20.587Z,101876.66
2023-05-08T19:55:25.035Z,101873.56
2023-05-08T20:00:30.518Z,101874.84
2023-05-08T20:05:38.785Z,101880.41
2023-05-08T20:10:44.915Z,101882.69
2023-05-08T20:15:50.564Z,101883.66
2023-05-08T20:20:58.040Z,101886.28
2023-05-08T20:26:04.307Z,101880.66
2023-05-08T20:31:10.087Z,101888.53
2023-05-08T20:36:16.380Z,101882.63
2023-05-08T20:41:20.632Z,101881.94
2023-05-08T20:46:26.467Z,101877.16
2023-05-08T20:51:31.922Z,101876.13
2023-05-08T20:56:36.781Z,101871.34
2023-05-08T21:01:42.449Z,101871.34
2023-05-08T21:06:46.562Z,101863.09
2023-05-08T21:11:51.174Z,101865.56
2023-05-08T21:16:57.261Z,101864.06
2023-05-08T21:22:01.691Z,101853.53
2023-05-08T21:27:06.399Z,101849.25
2023-05-08T21:32:11.894Z,101844.00
2023-05-08T21:37:16.081Z,101837.94
2023-05-08T21:42:21.880Z,101830.38
2023-05-08T21:47:28.309Z,101825.59
2023-05-08T21:52:32.502Z,101820.34
2023-05-08T21:57:36.876Z,101803.06
2023-05-08T22:02:42.880Z,101806.16
2023-05-08T22:07:47.579Z,101797.97
2023-05-08T22:12:51.669Z,101794.94
2023-05-08T22:17:57.822Z,101785.03
2023-05-08T22:23:01.993Z,101779.72
2023-05-08T22:28:06.373Z,101779.38
2023-05-08T22:33:12.241Z,101765.88
2023-05-08T22:38:17.108Z,101769.78
2023-05-08T22:43:21.174Z,101756.00
2023-05-08T22:48:26.719Z,101746.09
2023-05-08T22:53:30.936Z,101735.91
2023-05-08T22:58:35.125Z,101728.78
2023-05-08T23:03:40.493Z,101710.94
2023-05-08T23:08:44.542Z,101713.88
2023-05-08T23:13:48.652Z,101705.84
2023-05-08T23:18:54.754Z,101708.88
2023-05-08T23:23:58.972Z,101683.63
2023-05-08T23:29:03.811Z,101683.63
2023-05-08T23:34:09.231Z,101695.75
2023-05-08T23:39:13.853Z,101685.28
2023-05-08T23:44:21.081Z,101686.81
2023-05-08T23:49:27.073Z,101690.88
2023-05-08T23:54:31.162Z,101680.72
2023-05-08T23:59:35.406Z,101667.66
